createdAt,value
2023-06-30T00:00:18.505Z,59.94
2023-06-30T00:02:54.031Z,58.75
2023-06-30T00:05:23.004Z,58.33
2023-06-30T00:07:56.791Z,56.68
2023-06-30T00:10:26.173Z,56.18
2023-06-30T00:12:54.830Z,55.58
2023-06-30T00:15:23.568Z,56.46
2023-06-30T00:17:54.456Z,59.45
2023-06-30T00:20:25.535Z,61.41
2023-06-30T00:22:54.258Z,63.32
2023-06-30T00:25:23.214Z,64.90
2023-06-30T00:27:51.812Z,65.98
2023-06-30T00:30:20.538Z,67.45
2023-06-30T00:32:51.635Z,68.34
2023-06-30T00:35:20.972Z,69.17
2023-06-30T00:37:50.158Z,68.23
2023-06-30T00:40:19.211Z,65.64
2023-06-30T00:42:48.892Z,65.80
2023-06-30T00:45:17.621Z,63.14
2023-06-30T00:47:46.556Z,61.08
2023-06-30T00:50:16.576Z,59.17
2023-06-30T00:52:46.872Z,57.79
2023-06-30T00:55:17.310Z,56.23
2023-06-30T00:57:46.152Z,55.43
2023-06-30T01:00:15.760Z,54.74
2023-06-30T01:03:03.367Z,54.29
2023-06-30T01:05:47.925Z,53.14
2023-06-30T01:08:31.693Z,52.31
2023-06-30T01:11:01.075Z,51.98
2023-06-30T01:13:31.702Z,51.60
2023-06-30T01:16:00.962Z,51.59
2023-06-30T01:18:34.596Z,50.85
2023-06-30T01:21:07.085Z,50.95
2023-06-30T01:23:40.994Z,49.95
2023-06-30T01:26:09.823Z,50.52
2023-06-30T01:28:40.306Z,51.41
2023-06-30T01:31:11.166Z,51.21
2023-06-30T01:33:43.039Z,51.54
2023-06-30T01:36:11.937Z,51.41
2023-06-30T01:38:40.537Z,51.14
2023-06-30T01:41:10.582Z,51.96
2023-06-30T01:43:41.896Z,51.12
2023-06-30T01:46:11.542Z,51.24
2023-06-30T01:48:42.335Z,51.69
2023-06-30T01:51:14.461Z,51.71
2023-06-30T01:53:43.397Z,51.96
2023-06-30T01:56:14.018Z,52.20
2023-06-30T01:58:42.678Z,51.39
2023-06-30T02:01:11.390Z,52.07
2023-06-30T02:03:40.379Z,53.04
2023-06-30T02:06:09.697Z,53.41
2023-06-30T02:08:38.558Z,52.31
2023-06-30T02:11:07.409Z,52.63
2023-06-30T02:13:36.002Z,53.49
2023-06-30T02:16:05.139Z,52.55
2023-06-30T02:18:33.916Z,53.21
2023-06-30T02:21:02.902Z,52.96
2023-06-30T02:23:31.998Z,53.77
2023-06-30T02:26:03.776Z,54.13
2023-06-30T02:28:32.677Z,53.60
2023-06-30T02:31:01.663Z,55.32
2023-06-30T02:33:30.556Z,54.54
2023-06-30T02:35:59.537Z,53.89
2023-06-30T02:38:34.557Z,53.37
2023-06-30T02:41:03.220Z,53.68
2023-06-30T02:43:31.988Z,54.58
2023-06-30T02:46:01.020Z,56.19
2023-06-30T02:48:31.072Z,55.09
2023-06-30T02:51:02.456Z,53.99
2023-06-30T02:53:31.833Z,57.83
2023-06-30T02:56:00.433Z,54.90
2023-06-30T02:58:30.184Z,56.42
2023-06-30T03:00:59.041Z,54.02
2023-06-30T03:03:28.070Z,55.15
2023-06-30T03:05:57.999Z,55.60
2023-06-30T03:08:28.540Z,54.55
2023-06-30T03:10:57.575Z,55.52
2023-06-30T03:13:27.640Z,55.04
2023-06-30T03:15:56.531Z,56.11
2023-06-30T03:18:25.911Z,55.69
2023-06-30T03:20:54.805Z,56.05
2023-06-30T03:23:23.999Z,55.63
2023-06-30T03:25:52.917Z,54.78
2023-06-30T03:28:22.700Z,56.25
2023-06-30T03:30:52.379Z,56.51
2023-06-30T03:33:23.555Z,56.81
2023-06-30T03:35:54.081Z,57.37
2023-06-30T03:38:23.223Z,56.63
2023-06-30T03:40:55.216Z,56.96
2023-06-30T03:43:25.784Z,55.34
2023-06-30T03:45:55.454Z,56.11
2023-06-30T03:48:25.216Z,56.66
2023-06-30T03:50:57.492Z,56.87
2023-06-30T03:53:26.314Z,57.77
2023-06-30T03:55:55.241Z,57.08
2023-06-30T03:58:24.200Z,57.80
2023-06-30T04:00:53.138Z,58.22
2023-06-30T04:03:24.185Z,57.96
2023-06-30T04:05:55.130Z,55.86
2023-06-30T04:08:24.148Z,56.36
2023-06-30T04:10:53.661Z,55.09
2023-06-30T04:13:23.238Z,55.28
2023-06-30T04:15:52.223Z,54.93
2023-06-30T04:18:21.218Z,55.00
2023-06-30T04:20:50.049Z,54.44
2023-06-30T04:23:19.026Z,54.88
2023-06-30T04:25:50.459Z,54.15
2023-06-30T04:28:19.489Z,53.92
2023-06-30T04:33:18.079Z,52.49
2023-06-30T04:35:47.376Z,53.45
2023-06-30T04:38:16.744Z,52.84
2023-06-30T04:40:45.702Z,52.71
2023-06-30T04:43:15.066Z,52.29
2023-06-30T04:45:45.046Z,52.78
2023-06-30T04:48:14.138Z,52.85
2023-06-30T04:50:43.083Z,54.07
2023-06-30T04:53:12.223Z,55.24
2023-06-30T04:55:41.124Z,56.10
2023-06-30T04:58:10.026Z,55.63
2023-06-30T05:00:39.028Z,57.00
2023-06-30T05:03:07.924Z,57.78
2023-06-30T05:05:36.958Z,57.10
2023-06-30T05:08:06.024Z,57.28
2023-06-30T05:10:37.159Z,56.73
2023-06-30T05:13:08.541Z,55.88
2023-06-30T05:15:37.609Z,56.91
2023-06-30T05:18:07.764Z,56.82
2023-06-30T05:20:38.610Z,57.24
2023-06-30T05:23:07.786Z,56.27
2023-06-30T05:25:36.858Z,55.68
2023-06-30T05:28:05.987Z,56.55
2023-06-30T05:30:35.001Z,55.45
2023-06-30T05:33:06.730Z,56.73
2023-06-30T05:35:35.826Z,56.52
2023-06-30T05:38:04.993Z,56.32
2023-06-30T05:40:33.968Z,55.21
2023-06-30T05:43:02.951Z,54.16
2023-06-30T05:45:31.859Z,54.50
2023-06-30T05:48:00.779Z,56.24
2023-06-30T05:50:30.962Z,55.88
2023-06-30T05:52:59.916Z,54.66
2023-06-30T05:55:29.028Z,53.60
2023-06-30T05:57:57.804Z,51.62
2023-06-30T06:00:27.146Z,51.16
2023-06-30T06:02:56.752Z,51.60
2023-06-30T06:05:26.178Z,51.63
2023-06-30T06:07:55.125Z,52.68
2023-06-30T06:10:24.072Z,52.56
2023-06-30T06:12:56.332Z,52.06
2023-06-30T06:15:25.202Z,51.48
2023-06-30T06:17:54.228Z,50.89
2023-06-30T06:20:23.201Z,49.00
2023-06-30T06:22:51.961Z,48.93
2023-06-30T06:25:20.975Z,49.04
2023-06-30T06:27:49.860Z,50.24
2023-06-30T06:30:18.718Z,49.46
2023-06-30T06:32:47.584Z,51.66
2023-06-30T06:35:17.032Z,51.33
2023-06-30T06:37:45.830Z,48.91
2023-06-30T06:40:15.825Z,46.75
2023-06-30T06:42:44.957Z,48.18
2023-06-30T06:45:14.372Z,49.64
2023-06-30T06:48:21.350Z,49.58
2023-06-30T06:50:55.082Z,49.90
2023-06-30T06:53:31.575Z,49.32
2023-06-30T06:56:00.791Z,51.43
2023-06-30T06:58:34.872Z,50.07
2023-06-30T07:01:03.868Z,49.24
2023-06-30T07:03:33.096Z,48.39
2023-06-30T07:06:02.492Z,46.85
2023-06-30T07:08:36.858Z,47.58
2023-06-30T07:11:05.983Z,47.55
2023-06-30T07:13:35.589Z,48.41
2023-06-30T07:16:05.105Z,48.48
2023-06-30T07:18:34.743Z,48.38
2023-06-30T07:21:04.137Z,47.52
2023-06-30T07:23:33.197Z,48.15
2023-06-30T07:26:02.741Z,47.06
2023-06-30T07:28:33.184Z,48.27
2023-06-30T07:31:02.482Z,46.92
2023-06-30T07:33:31.549Z,47.41
2023-06-30T07:36:00.682Z,47.28
2023-06-30T07:38:29.597Z,46.96
2023-06-30T07:40:59.203Z,47.85
2023-06-30T07:43:28.725Z,45.77
2023-06-30T07:45:58.429Z,44.80
2023-06-30T07:48:28.202Z,46.12
2023-06-30T07:51:08.583Z,44.42
2023-06-30T07:53:40.207Z,45.69
2023-06-30T07:56:09.267Z,45.26
2023-06-30T07:58:38.649Z,43.85
2023-06-30T08:01:07.786Z,45.37
2023-06-30T08:03:36.950Z,45.42
2023-06-30T08:06:06.380Z,45.52
2023-06-30T08:08:35.771Z,46.80
2023-06-30T08:11:05.109Z,46.71
2023-06-30T08:13:34.108Z,47.83
2023-06-30T08:16:03.901Z,46.31
2023-06-30T08:18:34.371Z,46.39
2023-06-30T08:21:05.113Z,46.12
2023-06-30T08:23:33.920Z,45.76
2023-06-30T08:26:02.989Z,46.48
2023-06-30T08:28:31.940Z,46.24
2023-06-30T08:31:00.927Z,46.43
2023-06-30T08:36:03.716Z,45.97
2023-06-30T08:38:32.532Z,44.71
2023-06-30T08:41:02.387Z,43.69
2023-06-30T08:43:35.167Z,42.86
2023-06-30T08:46:05.600Z,45.24
2023-06-30T08:48:35.788Z,44.53
2023-06-30T08:51:06.334Z,45.93
2023-06-30T08:53:36.036Z,43.87
2023-06-30T08:56:06.038Z,43.30
2023-06-30T08:58:35.299Z,43.84
2023-06-30T09:01:04.873Z,42.83
2023-06-30T09:03:34.317Z,42.26
2023-06-30T09:06:04.251Z,41.43
2023-06-30T09:08:46.168Z,41.89
2023-06-30T09:11:18.623Z,43.18
2023-06-30T09:13:49.697Z,44.05
2023-06-30T09:16:20.172Z,43.20
2023-06-30T09:18:50.383Z,44.23
2023-06-30T09:21:20.517Z,44.43
2023-06-30T09:23:54.009Z,45.02
2023-06-30T09:26:22.909Z,44.20
2023-06-30T09:28:56.843Z,45.25
2023-06-30T09:31:36.709Z,42.24
2023-06-30T09:34:15.661Z,43.69
2023-06-30T09:36:51.281Z,41.95
2023-06-30T09:39:20.797Z,42.81
2023-06-30T09:41:51.579Z,43.19
2023-06-30T09:44:22.189Z,43.71
2023-06-30T09:46:55.675Z,44.42
2023-06-30T09:49:29.012Z,44.62
2023-06-30T09:51:59.265Z,42.87
2023-06-30T09:54:43.713Z,41.61
2023-06-30T09:57:13.965Z,42.71
2023-06-30T09:59:42.878Z,41.08
2023-06-30T10:02:12.183Z,42.95
2023-06-30T10:04:41.618Z,43.31
2023-06-30T10:07:13.232Z,41.55
2023-06-30T10:09:47.309Z,41.46
2023-06-30T10:12:23.760Z,40.89
2023-06-30T10:14:54.081Z,42.31
2023-06-30T10:17:23.130Z,42.53
2023-06-30T10:19:52.960Z,43.17
2023-06-30T10:22:24.043Z,42.99
2023-06-30T10:24:56.513Z,42.71
2023-06-30T10:27:26.071Z,42.82
2023-06-30T10:29:56.372Z,43.42
2023-06-30T10:32:25.454Z,43.12
2023-06-30T10:34:55.400Z,43.29
2023-06-30T10:37:24.779Z,43.69
2023-06-30T10:39:54.111Z,43.94
2023-06-30T10:42:22.885Z,42.72
2023-06-30T10:44:51.700Z,43.65
2023-06-30T10:47:25.184Z,43.10
2023-06-30T10:49:55.972Z,42.89
2023-06-30T10:52:29.916Z,42.89
2023-06-30T10:55:07.970Z,44.71
2023-06-30T10:57:41.420Z,44.13
2023-06-30T11:00:16.487Z,44.27
2023-06-30T11:03:01.600Z,43.93
2023-06-30T11:05:33.701Z,43.03
2023-06-30T11:08:11.242Z,44.12
2023-06-30T11:10:47.991Z,44.65
2023-06-30T11:13:17.044Z,45.72
2023-06-30T11:15:53.338Z,44.19
2023-06-30T11:18:24.791Z,42.88
2023-06-30T11:21:04.995Z,42.12
2023-06-30T11:23:44.752Z,42.03
2023-06-30T11:26:21.452Z,43.00
2023-06-30T11:28:50.746Z,43.47
2023-06-30T11:31:20.161Z,43.05
2023-06-30T11:33:49.205Z,43.80
2023-06-30T11:36:19.438Z,44.29
2023-06-30T11:38:49.984Z,42.54
2023-06-30T11:41:25.362Z,42.51
2023-06-30T11:43:57.362Z,42.76
2023-06-30T11:46:26.436Z,42.62
2023-06-30T11:48:55.590Z,44.07
2023-06-30T11:51:24.944Z,44.02
2023-06-30T11:53:54.589Z,43.40
2023-06-30T11:56:24.154Z,43.17
2023-06-30T11:58:54.393Z,42.80
2023-06-30T12:01:23.359Z,43.20
2023-06-30T12:04:24.845Z,42.88
2023-06-30T12:06:57.530Z,41.46
2023-06-30T12:09:27.589Z,42.69
2023-06-30T12:12:02.358Z,43.27
2023-06-30T12:14:31.551Z,43.69
2023-06-30T12:17:00.942Z,43.92
2023-06-30T12:19:30.098Z,44.22
2023-06-30T12:22:05.338Z,44.02
2023-06-30T12:24:36.228Z,43.54
2023-06-30T12:27:07.526Z,43.28
2023-06-30T12:29:38.077Z,42.82
2023-06-30T12:32:19.250Z,43.42
2023-06-30T12:34:48.385Z,43.25
2023-06-30T12:37:21.693Z,43.04
2023-06-30T12:39:50.312Z,43.95
2023-06-30T12:42:20.161Z,44.01
2023-06-30T12:44:49.206Z,44.08
2023-06-30T12:47:18.132Z,44.82
2023-06-30T12:49:47.009Z,43.75
2023-06-30T12:52:17.654Z,44.52
2023-06-30T12:54:47.548Z,44.47
2023-06-30T12:57:16.219Z,44.39
2023-06-30T12:59:45.592Z,43.72
2023-06-30T13:02:15.155Z,44.34
2023-06-30T13:04:43.839Z,44.65
2023-06-30T13:07:14.974Z,45.15
2023-06-30T13:09:44.248Z,44.80
2023-06-30T13:12:13.354Z,45.78
2023-06-30T13:14:45.108Z,44.96
2023-06-30T13:17:16.899Z,45.39
2023-06-30T13:19:46.547Z,45.69
2023-06-30T13:22:17.016Z,46.55
2023-06-30T13:24:46.543Z,45.84
2023-06-30T13:27:16.068Z,45.98
2023-06-30T13:29:51.987Z,46.38
2023-06-30T13:32:21.533Z,47.20
2023-06-30T13:34:50.783Z,46.68
2023-06-30T13:37:20.257Z,46.21
2023-06-30T13:39:49.693Z,46.17
2023-06-30T13:42:18.609Z,46.13
2023-06-30T13:44:47.909Z,46.62
2023-06-30T13:47:16.754Z,47.13
2023-06-30T13:49:45.702Z,46.85
2023-06-30T13:52:17.660Z,47.08
2023-06-30T13:54:46.502Z,48.20
2023-06-30T13:57:15.437Z,47.47
2023-06-30T13:59:44.716Z,47.32
2023-06-30T14:02:14.154Z,47.45
2023-06-30T14:04:43.233Z,47.42
2023-06-30T14:07:14.248Z,47.94
2023-06-30T14:09:43.361Z,47.94
2023-06-30T14:12:12.378Z,48.08
2023-06-30T14:14:41.174Z,48.17
2023-06-30T14:17:10.207Z,48.70
2023-06-30T14:19:39.481Z,48.50
2023-06-30T14:22:11.126Z,48.30
2023-06-30T14:24:40.494Z,48.63
2023-06-30T14:27:09.902Z,49.02
2023-06-30T14:29:46.488Z,48.33
2023-06-30T14:32:15.303Z,49.66
2023-06-30T14:34:44.159Z,48.90
2023-06-30T14:37:13.137Z,49.26
2023-06-30T14:39:42.201Z,49.21
2023-06-30T14:42:22.917Z,49.34
2023-06-30T14:45:00.291Z,49.90
2023-06-30T14:47:30.016Z,51.08
2023-06-30T14:49:59.277Z,50.05
2023-06-30T14:52:28.171Z,49.66
2023-06-30T14:54:57.071Z,49.79
2023-06-30T14:57:25.879Z,50.24
2023-06-30T14:59:54.816Z,49.96
2023-06-30T15:02:25.888Z,49.09
2023-06-30T15:04:55.023Z,49.92
2023-06-30T15:07:24.069Z,50.70
2023-06-30T15:09:53.391Z,50.82
2023-06-30T15:12:22.199Z,51.62
2023-06-30T15:14:53.618Z,51.45
2023-06-30T15:17:25.950Z,51.52
2023-06-30T15:19:54.904Z,51.73
2023-06-30T15:22:23.966Z,53.78
2023-06-30T15:24:53.229Z,52.65
2023-06-30T15:27:22.562Z,53.16
2023-06-30T15:29:51.184Z,53.21
2023-06-30T15:32:20.501Z,53.40
2023-06-30T15:34:49.264Z,52.56
2023-06-30T15:37:18.757Z,54.20
2023-06-30T15:39:49.181Z,53.07
2023-06-30T15:42:18.439Z,54.02
2023-06-30T15:44:47.242Z,53.65
2023-06-30T15:47:16.558Z,54.71
2023-06-30T15:49:47.017Z,54.24
2023-06-30T15:52:15.811Z,53.95
2023-06-30T15:54:45.164Z,54.79
2023-06-30T15:57:16.827Z,56.88
2023-06-30T15:59:45.662Z,56.85
2023-06-30T16:02:14.648Z,56.85
2023-06-30T16:04:43.818Z,58.12
2023-06-30T16:07:12.864Z,58.83
2023-06-30T16:09:41.938Z,58.97
2023-06-30T16:12:11.916Z,60.24
2023-06-30T16:14:41.499Z,60.43
2023-06-30T16:17:10.966Z,60.59
2023-06-30T16:19:40.576Z,60.86
2023-06-30T16:22:10.508Z,60.77
2023-06-30T16:24:42.518Z,60.96
2023-06-30T16:27:13.420Z,60.71
2023-06-30T16:29:43.008Z,61.42
2023-06-30T16:32:12.097Z,61.98
2023-06-30T16:34:41.550Z,61.82
2023-06-30T16:37:10.838Z,62.23
2023-06-30T16:39:40.222Z,62.17
2023-06-30T16:42:09.723Z,62.81
2023-06-30T16:44:39.064Z,63.42
2023-06-30T16:47:08.543Z,64.00
2023-06-30T16:49:38.615Z,64.16
2023-06-30T16:52:08.106Z,64.69
2023-06-30T16:54:37.030Z,64.64
2023-06-30T16:57:06.751Z,65.26
2023-06-30T16:59:35.749Z,66.08
2023-06-30T17:02:07.375Z,66.66
2023-06-30T17:04:39.494Z,66.93
2023-06-30T17:07:10.368Z,67.30
2023-06-30T17:09:39.837Z,67.70
2023-06-30T17:12:09.324Z,66.96
2023-06-30T17:14:38.345Z,66.64
2023-06-30T17:17:07.854Z,66.44
2023-06-30T17:19:36.692Z,66.86
2023-06-30T17:22:05.474Z,66.96
2023-06-30T17:24:34.857Z,67.07
2023-06-30T17:27:03.621Z,67.63
2023-06-30T17:29:32.605Z,67.08
2023-06-30T17:32:04.202Z,68.13
2023-06-30T17:34:32.788Z,68.30
2023-06-30T17:37:03.357Z,67.86
2023-06-30T17:39:34.076Z,68.16
2023-06-30T17:42:02.960Z,68.56
2023-06-30T17:44:32.427Z,68.32
2023-06-30T17:47:02.358Z,69.28
2023-06-30T17:49:34.997Z,69.18
2023-06-30T17:52:06.436Z,69.40
2023-06-30T17:54:38.465Z,69.15
2023-06-30T17:57:08.769Z,69.49
2023-06-30T17:59:37.556Z,69.54
2023-06-30T18:02:06.687Z,70.29
2023-06-30T18:04:38.018Z,70.02
2023-06-30T18:07:08.972Z,70.04
2023-06-30T18:09:40.660Z,70.38
2023-06-30T18:12:11.696Z,71.03
2023-06-30T18:14:42.742Z,70.37
2023-06-30T18:17:11.983Z,70.06
2023-06-30T18:19:44.331Z,70.32
2023-06-30T18:22:15.082Z,70.82
2023-06-30T18:24:43.658Z,71.99
2023-06-30T18:27:12.901Z,71.52
2023-06-30T18:29:43.845Z,71.41
2023-06-30T18:32:12.856Z,72.47
2023-06-30T18:34:46.176Z,72.34
2023-06-30T18:37:15.800Z,72.91
2023-06-30T18:39:44.908Z,73.29
2023-06-30T18:42:13.787Z,73.06
2023-06-30T18:44:43.762Z,72.96
2023-06-30T18:47:12.389Z,73.68
2023-06-30T18:49:41.174Z,73.65
2023-06-30T18:52:09.755Z,73.41
2023-06-30T18:54:38.695Z,73.89
2023-06-30T18:57:07.677Z,73.79
2023-06-30T18:59:36.249Z,74.35
2023-06-30T19:02:05.310Z,74.80
2023-06-30T19:04:34.440Z,74.31
2023-06-30T19:07:04.059Z,75.14
2023-06-30T19:09:35.624Z,75.12
2023-06-30T19:12:05.326Z,75.14
2023-06-30T19:14:35.942Z,75.40
2023-06-30T19:17:06.025Z,75.54
2023-06-30T19:19:35.183Z,75.23
2023-06-30T19:22:04.165Z,74.63
2023-06-30T19:24:33.880Z,75.14
2023-06-30T19:27:02.642Z,75.12
2023-06-30T19:29:32.585Z,75.36
2023-06-30T19:32:01.740Z,75.42
2023-06-30T19:34:30.581Z,75.25
2023-06-30T19:37:00.991Z,75.47
2023-06-30T19:39:35.978Z,75.22
2023-06-30T19:42:05.701Z,75.25
2023-06-30T19:44:34.562Z,75.51
2023-06-30T19:47:03.886Z,74.99
2023-06-30T19:49:32.741Z,74.80
2023-06-30T19:52:02.041Z,75.30
2023-06-30T19:54:31.264Z,75.37
2023-06-30T19:57:00.162Z,75.98
2023-06-30T19:59:29.210Z,75.83
2023-06-30T20:01:59.931Z,75.92
2023-06-30T20:04:29.542Z,75.44
2023-06-30T20:06:58.425Z,75.79
2023-06-30T20:09:27.120Z,75.69
2023-06-30T20:11:56.181Z,75.29
2023-06-30T20:14:24.868Z,76.30
2023-06-30T20:16:53.902Z,76.10
2023-06-30T20:19:22.945Z,76.31
2023-06-30T20:21:51.950Z,76.30
2023-06-30T20:24:20.899Z,76.24
2023-06-30T20:26:49.581Z,76.27
2023-06-30T20:29:18.460Z,76.13
2023-06-30T20:31:47.350Z,75.77
2023-06-30T20:34:16.224Z,75.18
2023-06-30T20:36:45.204Z,76.42
2023-06-30T20:39:13.928Z,76.44
2023-06-30T20:41:42.787Z,76.67
2023-06-30T20:44:15.050Z,76.30
2023-06-30T20:46:43.962Z,76.01
2023-06-30T20:49:12.950Z,76.67
2023-06-30T20:51:41.944Z,76.85
2023-06-30T20:54:10.783Z,77.48
2023-06-30T20:56:39.732Z,77.11
2023-06-30T20:59:08.403Z,77.00
2023-06-30T21:01:37.430Z,77.88
2023-06-30T21:04:06.504Z,77.81
2023-06-30T21:06:36.814Z,78.03
2023-06-30T21:09:06.963Z,78.13
2023-06-30T21:11:35.907Z,78.52
2023-06-30T21:14:04.907Z,78.38
2023-06-30T21:16:33.789Z,78.44
2023-06-30T21:19:02.717Z,77.91
2023-06-30T21:21:32.344Z,77.93
2023-06-30T21:24:01.351Z,78.02
2023-06-30T21:26:30.156Z,78.00
2023-06-30T21:28:58.922Z,77.16
2023-06-30T21:31:27.705Z,76.96
2023-06-30T21:33:56.683Z,77.54
2023-06-30T21:36:25.457Z,77.94
2023-06-30T21:38:54.391Z,78.14
2023-06-30T21:41:23.660Z,78.39
2023-06-30T21:43:52.507Z,78.74
2023-06-30T21:46:21.495Z,78.86
2023-06-30T21:48:54.527Z,79.44
2023-06-30T21:51:23.464Z,78.98
2023-06-30T21:53:53.283Z,79.40
2023-06-30T21:56:22.285Z,79.48
2023-06-30T21:58:52.564Z,79.47
2023-06-30T22:01:28.766Z,79.79
2023-06-30T22:04:05.482Z,80.00
2023-06-30T22:06:34.615Z,80.11
2023-06-30T22:09:11.254Z,80.42
2023-06-30T22:11:44.951Z,79.84
2023-06-30T22:14:14.240Z,80.22
2023-06-30T22:16:43.797Z,79.96
2023-06-30T22:19:13.168Z,80.39
2023-06-30T22:21:42.766Z,80.16
2023-06-30T22:24:11.505Z,80.58
2023-06-30T22:26:40.256Z,79.87
2023-06-30T22:29:09.205Z,80.23
2023-06-30T22:31:38.300Z,79.93
2023-06-30T22:34:07.639Z,79.85
2023-06-30T22:36:39.294Z,80.20
2023-06-30T22:39:08.294Z,80.12
2023-06-30T22:41:37.019Z,80.55
2023-06-30T22:44:05.814Z,80.73
2023-06-30T22:46:34.620Z,80.84
2023-06-30T22:49:05.264Z,81.24
2023-06-30T22:51:34.175Z,80.78
2023-06-30T22:54:02.957Z,80.27
2023-06-30T22:56:31.647Z,80.66
2023-06-30T22:59:00.263Z,80.41
2023-06-30T23:01:29.145Z,80.16
2023-06-30T23:04:00.783Z,78.91
2023-06-30T23:06:36.072Z,78.79
2023-06-30T23:09:08.016Z,77.48
2023-06-30T23:11:37.804Z,75.37
2023-06-30T23:14:07.073Z,74.68
2023-06-30T23:16:39.144Z,72.86
2023-06-30T23:19:09.385Z,72.04
2023-06-30T23:21:39.324Z,71.70
2023-06-30T23:24:12.222Z,71.54
2023-06-30T23:26:42.833Z,71.56
2023-06-30T23:29:11.598Z,70.61
2023-06-30T23:31:40.903Z,69.39
2023-06-30T23:34:09.779Z,68.83
2023-06-30T23:36:38.865Z,67.78
2023-06-30T23:39:07.583Z,68.08
2023-06-30T23:41:36.390Z,67.62
2023-06-30T23:44:05.281Z,68.07
2023-06-30T23:46:33.961Z,67.74
2023-06-30T23:49:02.754Z,67.05
2023-06-30T23:51:31.672Z,66.32
2023-06-30T23:54:00.495Z,65.88
2023-06-30T23:56:29.134Z,65.46
2023-06-30T23:58:58.664Z,65.93
